Polk Army Air Field
KPOE : now visible

Airfield :











YOU CAN JOIN US ON...

 
LOGIN :

Register | Disclaimer

   EN    FR    IT 

 









Legend :    VFR   Marginal VFR   IFR   Intensive IFR   Very Intensive IFR
Visi :
Ceiling :
>= 8 km
>= 3000ft
5 to 8 km
1000 to 3000 ft
1500m to 5 km
500 to 1000 ft
800 to 1500m
200 to 500 ft
< 800m
< 200 ft
Symbols :   Thunderstorms  Fog  Heavy snow  Heavy precipitations  Wind > 20 kt






- Airport Elevation : 330 ft


KPOE - Polk Army Air Field

CURRENT METAR :
  • 272028Z AUTO 18015KT 10SM SCT028 BKN034 BKN049 26/18 A2997 RMK AO2 LTG DSNT S SLP148

EXPIRED METARs :
  • 272013Z AUTO 16013KT 10SM BKN028 OVC035 25/18 A2997 RMK AO2 SLP148
  • 271958Z AUTO 16016G21KT 10SM SCT027 BKN035 OVC048 25/18 A2997 RMK AO2 SLP148 T02470181
  • 271855Z 18010KT 7SM BKN015 OVC020 26/18 A3002 RMK SLPNO WND DATA ESTMD ALSTG ESTMD $
  • 271755Z VRB06KT 7SM BKN015 OVC020 25/18 A3005 RMK SLPNO WND DATA ESTMD ALSTG ASTMD$

TAF TAF KPOE
Valid from the 27 at 16:00 until the 28 at 22:00 UTC


271600Z 2716/2822 17009KT 9999 BKN014 QNH2995INS
BECMG 2718/2719 VRB06KT 9999 BKN020 QNH2995INS
BECMG 2800/2801 VRB06KT 9999 OVC005 QNH2994INS
BECMG 2816/2817 18012KT 9999 OVC007 QNH2992INS TX24/2720Z TN19/2716Z
KZHU FIR / North America



MET'MAP, your aeronautical weather chart ! - Copyright ORBIFLY December 2007 - Disclaimer

ORBIFLY MET'MAP TEAM :

Programming & Development : Alexandra Zaïnal
Concept & original design : Baudouin d'Aumeries
Assistance for programming : Marc-Olivier Méhu
Technical & hardware support : Manuel Goepfert

Contact : metmap@orbifly.com




SOURCES & CREDITS :

   NOAA       Earth
Advisory